Alpena, Michigan
Current Conditions -  °F | °C
As of 11:30 AM on Friday 19 Dec 2014 (Local Time) from KAPN Reporting Station
Broken Clouds Broken Clouds  
Wind Chill: 25°   Ceiling: 1300
Heat Index: 25°   Visibility: 10mi
Dew Point: 20°   Wind: 3mph
Humidity: 81%   Direction: 310°NW
Pressure: 30.28"   Gusts: NA
Location:  45.06°N, 83.44°W
Report Text: KAPN 191630Z AUTO 31003KT 10SM BKN013 M04/M07 A3028 RMK AO2 T10391067
Loading
Personal Weather Stations






























Interactive Weather Map New forecast layout! Learn more

10-Day Weather Forecast

Advertisements
Track Severe Weather on mobile